Latest Coastal Weather Observations for Lord Howe Island

IDN60701

Issued at 6:45 am EST Tuesday 29 July 2014 (issued every 10 minutes, with the page automatically refreshed every 10 minutes)

About coastal observations | Map of coastal stations | Coastal observations for NSW | Marine services | Other Formats
Station Details ID: 200839 Name: LORD HOWE ISLAND AERO Lat: -31.54 Lon: 159.08 Height: 5.0 m
Data from the previous 72 hours. | See also: Recent months at Lord Howe Island
Date/Time
EST
Temp

°C
Wind Pressure Rain
since 9am
mm
Weather Cloud Vis
km
Sea
Height
m
Swell
Dir
 
Speed
knots
Gust
knots
hPa Trend Height
m
Period
s
Dir
29/06:30am 14.8 SSW 5 6 1021.2 - 0.0 - Mostly clear 10 - - - -
29/06:00am 13.5 SSW 5 6 1020.9 - 0.0 - Mostly clear 10 - - - -
29/05:30am 14.3 SW 1 4 1020.7 F 0.0 Fine Partly cloudy 30 - - - -
29/05:00am 15.3 SSW 6 8 1020.5 - 0.0 - Partly cloudy 10 - - - -
29/04:30am 15.5 SW 10 16 1020.3 - 0.0 - Partly cloudy 10 - - - -
29/04:00am 15.8 W 19 24 1020.1 - 0.0 - Partly cloudy 10 - - - -
29/03:46am 15.8 W 15 20 1020.1 - 0.0 - Partly cloudy 10 - - - -
29/03:30am 13.7 SW 2 4 1020.1 - 0.0 - Partly cloudy 10 - - - -
29/03:00am 11.7 SW 0 4 1020.2 - 0.0 - Partly cloudy 10 - - - -
29/02:49am 11.2 CALM 0 0 1020.2 - 0.0 - Partly cloudy 10 - - - -
29/02:31am 10.7 CALM 0 0 1020.3 - 0.0 - - 6 - - - -
29/02:30am 10.6 CALM 0 0 1020.3 - 0.0 - - 7 - - - -
29/02:16am 10.8 CALM 0 0 1020.4 - 0.0 - - 10 - - - -
29/02:00am 10.6 CALM 0 0 1020.4 - 0.0 - Partly cloudy 6 - - - -
29/01:50am 10.7 CALM 0 0 1020.5 - 0.0 - - 6 - - - -
29/01:30am 11.3 CALM 0 0 1020.6 - 0.0 - - 10 - - - -
29/01:11am 11.3 CALM 0 0 1020.8 - 0.0 - - 5 - - - -
29/01:00am 11.7 CALM 0 0 1020.8 - 0.0 - - 10 - - - -
29/12:30am 12.5 CALM 0 0 1020.8 - 0.0 - Partly cloudy 10 - - - -
29/12:00am 13.2 SW 0 0 1021.0 - 0.0 - Cloudy 10 - - - -
 
Date/Time
EST
Temp

°C
Wind Pressure Rain
since 9am
mm
Weather Cloud Vis
km
Sea
Height
m
Swell
Dir
 
Speed
knots
Gust
knots
hPa Trend Height
m
Period
s
Dir
28/11:30pm 13.4 CALM 0 0 1021.2 - 0.0 - Mostly cloudy 10 - - - -
28/11:00pm 14.1 CALM 0 0 1021.5 - 0.0 - Partly cloudy 10 - - - -
28/10:30pm 13.4 CALM 0 0 1021.6 - 0.0 - - 10 - - - -
28/10:00pm 15.4 SSW 1 3 1021.7 - 0.0 - Cloudy 10 - - - -
28/09:30pm 15.3 CALM 0 0 1021.9 - 0.0 - Partly cloudy 10 - - - -
28/09:00pm 15.6 WNW 1 4 1022.0 - 0.0 - Cloudy 10 - - - -
28/08:30pm 15.4 CALM 0 0 1021.9 - 0.0 - Cloudy 10 - - - -
28/08:00pm 16.7 WSW 5 7 1021.7 - 0.0 - Cloudy 10 - - - -
28/07:30pm 16.5 W 4 7 1021.7 - 0.0 - Cloudy 10 - - - -
28/07:00pm 17.0 WSW 5 7 1021.7 - 0.0 - Cloudy 10 - - - -
28/06:30pm 15.9 SW 5 6 1021.4 - 0.0 - Partly cloudy 10 - - - -
28/06:00pm 16.8 WSW 6 7 1021.1 - 0.0 - Partly cloudy 10 - - - -
28/05:30pm 17.0 WSW 7 9 1021.0 - 0.0 - - 10 - - - -
28/05:00pm 17.1 W 9 10 1020.7 - 0.0 - - 10 - - - -
28/04:30pm 17.1 W 9 10 1020.5 - 0.0 - - 10 - - - -
28/04:00pm 17.7 W 8 10 1020.1 - 0.0 - - 10 - - - -
28/03:30pm 18.2 W 7 10 1020.1 - 0.0 - - 10 - - - -
28/03:00pm 18.9 W 4 5 1019.7 - 0.0 - - 10 - - - -
28/02:30pm 19.0 W 5 7 1019.8 F 0.0 Fine Mostly clear 30 - - - -
28/02:00pm 18.7 W 7 9 1020.0 - 0.0 - Mostly clear 10 - - - -
28/01:30pm 18.6 W 6 8 1019.9 - 0.0 - Mostly clear 10 - - - -
28/01:00pm 18.4 WSW 6 8 1020.1 - 0.0 - Mostly clear 10 - - - -
28/12:30pm 18.4 WSW 7 9 1020.4 - 0.0 - Mostly clear 10 - - - -
28/12:00pm 18.7 WSW 7 9 1020.9 - 0.0 - Mostly clear 10 - - - -
28/11:30am 18.3 WSW 8 9 1021.0 R 0.0 Fine Mostly clear 30 - - - -
28/11:00am 18.0 WSW 8 10 1021.4 - 0.0 - Mostly clear 10 - - - -
28/10:30am 18.2 WSW 7 9 1021.6 - 0.0 - Mostly clear 10 - - - -
28/10:00am 18.3 SW 6 7 1021.5 - 0.0 - Mostly clear 10 - - - -
28/09:30am 18.1 WSW 5 7 1021.8 - 0.0 - Mostly clear 10 - - - -
28/09:00am 17.7 SW 5 7 1021.7 - 0.0 - Mostly clear 10 - - - -
28/08:30am 17.2 SW 4 6 1021.6 R 0.2 Fine Mostly clear 30 - - - -
28/08:00am 15.6 SW 1 3 1021.6 - 0.2 - Mostly clear 10 - - - -
28/07:30am 14.1 CALM 0 1 1021.5 - 0.2 - Mostly clear 10 - - - -
28/07:00am 12.1 CALM 0 0 1021.0 - 0.2 - Mostly clear 10 - - - -
28/06:30am 10.9 CALM 0 0 1020.7 - 0.2 - Mostly clear 10 - - - -
28/06:00am 10.0 CALM 0 0 1020.6 - 0.2 - Mostly clear 10 - - - -
28/05:30am 10.5 CALM 0 0 1020.4 R 0.2 Fine Mostly clear 30 - - - -
28/05:00am 10.3 CALM 0 2 1020.2 - 0.2 - - 10 - - - -
28/04:30am 10.8 CALM 0 0 1019.9 - 0.2 - - 10 - - - -
28/04:00am 11.2 CALM 0 1 1019.8 - 0.2 - Partly cloudy 10 - - - -
28/03:30am 11.3 CALM 0 0 1019.8 - 0.2 - Partly cloudy 10 - - - -
28/03:00am 11.5 CALM 0 0 1019.9 - 0.2 - Partly cloudy 10 - - - -
28/02:30am 11.9 ESE 1 4 1019.6 - 0.2 - - 10 - - - -
28/02:00am 14.0 SSW 1 5 1019.7 - 0.2 - - 10 - - - -
28/01:30am 14.4 S 1 4 1019.8 - 0.2 - Partly cloudy 10 - - - -
28/01:00am 15.6 S 4 7 1020.1 - 0.2 - Partly cloudy 10 - - - -
28/12:30am 16.2 SSW 6 8 1020.1 - 0.2 - Partly cloudy 10 - - - -
28/12:00am 16.6 SW 7 12 1020.2 - 0.2 - Partly cloudy 10 - - - -
 
Date/Time
EST
Temp

°C
Wind Pressure Rain
since 9am
mm
Weather Cloud Vis
km
Sea
Height
m
Swell
Dir
 
Speed
knots
Gust
knots
hPa Trend Height
m
Period
s
Dir
27/11:30pm 16.7 SW 10 14 1020.3 - 0.2 - Mostly clear 10 - - - -
27/11:00pm 16.8 SW 11 16 1020.4 - 0.2 - Partly cloudy 10 - - - -
27/10:30pm 17.0 SW 10 14 1020.5 - 0.2 - Partly cloudy 10 - - - -
27/10:00pm 16.9 SSW 7 11 1020.4 - 0.2 - Partly cloudy 10 - - - -
27/09:30pm 16.9 SSW 8 12 1020.2 - 0.2 - Partly cloudy 10 - - - -
27/09:00pm 16.9 SSW 9 15 1020.0 - 0.2 - Partly cloudy 10 - - - -
27/08:30pm 16.8 SSW 11 16 1020.1 - 0.2 - - 10 - - - -
27/08:00pm 17.1 SW 11 17 1020.0 - 0.2 - Partly cloudy 10 - - - -
27/07:30pm 17.1 SW 11 16 1019.9 - 0.2 - Partly cloudy 10 - - - -
27/07:00pm 17.0 SW 11 16 1019.7 - 0.2 - Partly cloudy 10 - - - -
27/06:30pm 17.2 SW 13 18 1019.4 - 0.2 - - 10 - - - -
27/06:00pm 17.2 SW 13 19 1019.1 - 0.2 - Partly cloudy 10 - - - -
27/05:30pm 17.3 SW 13 19 1018.6 - 0.2 - Partly cloudy 10 - - - -
27/05:00pm 17.4 SW 12 19 1018.2 - 0.2 - Partly cloudy 10 - - - -
27/04:30pm 17.4 SW 14 19 1017.9 - 0.2 - Partly cloudy 10 - - - -
27/04:00pm 17.7 SW 15 21 1017.6 - 0.2 - - 10 - - - -
27/03:30pm 17.9 SW 15 22 1017.4 - 0.2 - Partly cloudy 10 - - - -
27/03:00pm 18.1 SW 15 22 1017.3 - 0.2 - Partly cloudy 10 - - - -
27/02:30pm 18.0 SW 16 23 1017.2 F 0.2 Fine Partly cloudy 20 - - - -
27/02:00pm 18.1 WSW 19 24 1017.0 - 0.2 - Partly cloudy 10 - - - -
27/01:30pm 18.3 WSW 17 21 1017.0 - 0.2 - Partly cloudy 10 - - - -
27/01:00pm 18.6 WSW 16 20 1017.1 - 0.2 - Partly cloudy 10 - - - -
27/12:30pm 18.4 WSW 14 18 1017.4 - 0.2 - Partly cloudy 10 - - - -
27/12:00pm 18.2 WSW 13 15 1017.9 - 0.2 - - 10 - - - -
27/11:30am 18.0 WSW 12 15 1018.5 - 0.2 - - 10 - - - -
27/11:00am 18.2 W 9 11 1019.1 - 0.0 - - 10 - - - -
27/10:30am 17.7 W 11 13 1019.5 - 0.0 - Partly cloudy 10 - - - -
27/10:06am 16.4 W 9 11 1019.7 - 0.0 - Partly cloudy 10 - - - -
27/10:00am 16.2 W 10 12 1019.8 - 0.0 - Partly cloudy 10 - - - -
27/09:32am 16.3 W 7 9 1020.0 - 0.0 - Partly cloudy 10 - - - -
27/09:30am 16.2 WNW 7 9 1020.0 - 0.0 - Partly cloudy 10 - - - -
27/09:00am 16.2 W 10 12 1019.9 - 0.0 - Partly cloudy 10 - - - -
27/08:30am 15.2 WNW 4 7 1019.8 F 28.0 Drizzle Mostly cloudy 20 - - - -
27/08:00am 15.6 N 4 7 1019.8 - 28.0 - Partly cloudy 10 - - - -
27/07:30am 15.5 N 6 11 1019.7 - 27.8 - Partly cloudy 10 - - - -
27/07:18am 15.3 E 1 4 1019.7 - 27.8 - Partly cloudy 10 - - - -
27/07:00am 15.1 NNE 4 6 1020.0 - 27.2 - Partly cloudy 2 - - - -
27/06:49am 15.2 S 5 6 1020.1 - 24.6 - Partly cloudy 6 - - - -
27/06:32am 15.4 SW 3 6 1020.1 - 23.6 - Partly cloudy 10 - - - -
27/06:30am 15.3 WSW 2 5 1020.1 - 23.6 - Partly cloudy 10 - - - -
27/06:21am 15.3 NW 2 5 1019.9 - 23.4 - Partly cloudy 6 - - - -
27/06:00am 15.4 NNW 3 7 1020.0 - 23.2 - Partly cloudy 10 - - - -
27/05:30am 15.1 NNW 4 7 1019.9 F 23.2 Drizzle Cloudy 10 - - - -
27/05:23am 15.1 N 6 9 1019.9 - 23.2 - Partly cloudy 10 - - - -
27/05:00am 14.9 N 6 10 1020.0 - 23.2 - Partly cloudy 9 - - - -
27/04:30am 14.2 NW 1 7 1019.9 - 22.6 - Partly cloudy 10 - - - -
27/04:00am 14.2 WNW 1 3 1020.2 - 22.4 - Partly cloudy 10 - - - -
27/03:49am 14.3 WSW 5 8 1020.4 - 22.4 - Partly cloudy 10 - - - -
27/03:30am 14.4 NNW 1 4 1019.9 - 21.6 - Partly cloudy 6 - - - -
27/03:28am 14.5 NW 2 5 1019.9 - 21.4 - Partly cloudy 6 - - - -
27/03:00am 14.5 WSW 8 13 1020.0 - 20.4 - Cloudy 10 - - - -
27/02:30am 14.5 SW 10 15 1020.4 - 20.2 - Cloudy 10 - - - -
27/02:17am 14.4 SW 10 16 1020.7 - 20.0 - Partly cloudy 10 - - - -
27/02:09am 14.2 SW 10 13 1020.9 - 19.6 - Partly cloudy 7 - - - -
27/02:00am 14.3 SW 10 16 1021.0 - 19.2 - Partly cloudy 5 - - - -
27/01:30am 14.7 WSW 17 22 1022.1 - 8.8 - Partly cloudy 2 - - - -
27/01:13am 14.8 WSW 15 23 1021.3 - 2.0 - Partly cloudy 5 - - - -
27/01:10am 14.9 WSW 17 24 1021.5 - 1.4 - Partly cloudy 6 - - - -
27/01:00am 18.1 NW 9 20 1021.7 - 0.8 - Partly cloudy 9 - - - -
27/12:30am 19.1 N 8 16 1021.1 - 0.0 - Partly cloudy 10 - - - -
27/12:00am 18.9 N 7 16 1021.8 - 0.0 - Partly cloudy 10 - - - -
 
Date/Time
EST
Temp

°C
Wind Pressure Rain
since 9am
mm
Weather Cloud Vis
km
Sea
Height
m
Swell
Dir
 
Speed
knots
Gust
knots
hPa Trend Height
m
Period
s
Dir
26/11:30pm 18.9 N 7 14 1022.2 - 0.0 - Mostly cloudy 10 - - - -
26/11:00pm 18.9 N 8 16 1022.7 - 0.0 - Partly cloudy 10 - - - -
26/10:30pm 18.8 N 7 13 1023.2 - 0.0 - Partly cloudy 10 - - - -
26/10:00pm 18.7 N 7 15 1023.5 - 0.0 - Partly cloudy 10 - - - -
26/09:30pm 18.8 N 8 13 1023.6 - 0.0 - Partly cloudy 10 - - - -
26/09:00pm 18.6 NNE 8 16 1023.9 - 0.0 - Partly cloudy 10 - - - -
26/08:30pm 18.5 NNE 9 18 1024.1 - 0.0 - Mostly clear 10 - - - -
26/08:00pm 18.7 N 7 12 1024.5 - 0.0 - Partly cloudy 10 - - - -
26/07:30pm 18.7 N 5 10 1024.6 - 0.0 - Partly cloudy 10 - - - -
26/07:00pm 18.5 NNE 8 13 1024.7 - 0.0 - - 10 - - - -
26/06:30pm 18.6 N 7 11 1024.6 - 0.0 - Partly cloudy 10 - - - -
26/06:00pm 18.6 NNE 6 10 1024.7 - 0.0 - Partly cloudy 10 - - - -
26/05:30pm 18.4 N 5 9 1024.7 - 0.0 - - 10 - - - -
26/05:00pm 18.3 N 5 10 1024.6 - 0.0 - - 10 - - - -
26/04:30pm 18.4 N 4 8 1024.8 - 0.0 - - 10 - - - -
26/04:00pm 18.8 NNW 4 8 1024.8 - 0.0 - - 10 - - - -
26/03:30pm 19.1 NNW 7 12 1025.1 - 0.0 - Partly cloudy 10 - - - -
26/03:00pm 19.5 NNW 7 12 1025.3 - 0.0 - Partly cloudy 10 - - - -
26/02:30pm 19.5 NW 5 10 1025.2 F 0.0 Fine Cloudy 20 - - - -
26/02:00pm 19.9 N 7 13 1025.1 - 0.0 - Partly cloudy 10 - - - -
26/01:30pm 19.6 N 6 12 1025.4 - 0.0 - - 10 - - - -
26/01:00pm 20.1 N 7 12 1025.8 - 0.0 - Partly cloudy 10 - - - -
26/12:30pm 19.5 NW 9 18 1026.2 - 0.0 - Partly cloudy 10 - - - -
26/12:00pm 21.4 NNW 7 11 1026.7 - 0.0 - Partly cloudy 10 - - - -
26/11:30am 20.8 NW 7 12 1027.0 - 0.0 - - 10 - - - -
26/11:00am 20.8 NW 8 14 1027.8 - 0.0 - Partly cloudy 10 - - - -
26/10:30am 20.6 N 8 15 1028.1 - 0.0 - Partly cloudy 10 - - - -
26/10:00am 20.3 N 10 15 1028.6 - 0.0 - - 10 - - - -
26/09:30am 20.1 N 7 12 1028.7 - 0.0 - - 10 - - - -
26/09:00am 19.7 N 5 8 1028.7 - 0.0 - - 10 - - - -
26/08:30am 19.3 NNW 4 7 1028.8 F 0.6 Fine Mostly cloudy 20 - - - -
26/08:00am 18.9 NNW 3 6 1028.8 - 0.6 - Partly cloudy 10 - - - -
26/07:30am 18.1 NNE 1 4 1028.6 - 0.6 - Partly cloudy 10 - - - -
26/07:00am 17.5 ENE 1 3 1028.6 - 0.6 - - 10 - - - -
26/06:30am 17.3 N 3 6 1028.5 - 0.6 - - 10 - - - -

Other Formats:

Comma delimited format used in spreadsheet applications
http://www.bom.gov.au/fwo/IDN60701/IDN60701.94995.axf

JavaScript Object Notation format (JSON) in row-major order
http://www.bom.gov.au/fwo/IDN60701/IDN60701.94995.json